Time;durP1;ratioP1;P1;durP2;ratioP2;P2;SDS_P1;SDS_P2;PMS_P1;PMS_P2;Temp;Humidity;BMP_temperature;BMP_pressure;BME280_temperature;BME280_humidity;BME280_pressure;Samples;Min_cycle;Max_cycle;Signal;HPM_P1;HPM_P2
2024/02/12 00:03:02;;;;;;;9.65;5.00;;;6.90;99.90;;;;;;8457192;28;20075;-73
2024/02/12 00:07:05;;;;;;;10.93;4.90;;;6.90;99.90;;;;;;8449849;28;20043;-73
2024/02/12 00:11:08;;;;;;;69.03;6.30;;;6.90;99.90;;;;;;8459444;27;20479;-73
2024/02/12 00:15:13;;;;;;;18.73;5.55;;;6.70;99.90;;;;;;8448704;28;20046;-73
2024/02/12 00:19:17;;;;;;;17.77;6.43;;;6.70;99.90;;;;;;8455443;28;20054;-73
2024/02/12 00:23:19;;;;;;;29.92;6.40;;;6.60;99.90;;;;;;8455771;28;20047;-73
2024/02/12 00:27:21;;;;;;;20.75;7.18;;;6.70;99.90;;;;;;8450177;28;20051;-73
2024/02/12 00:31:25;;;;;;;18.30;7.00;;;6.60;99.90;;;;;;8449225;28;20047;-73
2024/02/12 00:35:27;;;;;;;16.10;7.85;;;6.60;99.90;;;;;;8455880;27;20438;-73
2024/02/12 00:39:30;;;;;;;17.77;7.55;;;6.70;99.90;;;;;;8452165;28;20457;-73
2024/02/12 00:43:32;;;;;;;17.30;8.00;;;6.70;99.90;;;;;;8455585;28;20062;-73
2024/02/12 00:47:34;;;;;;;16.52;7.57;;;6.70;99.90;;;;;;8454771;28;20050;-73
2024/02/12 00:51:37;;;;;;;16.23;7.18;;;6.70;99.90;;;;;;8452513;28;20079;-73
2024/02/12 00:55:39;;;;;;;14.73;7.80;;;6.70;99.90;;;;;;8456494;28;20501;-73
2024/02/12 00:59:41;;;;;;;12.98;7.47;;;6.70;99.90;;;;;;8452699;28;20075;-73
2024/02/12 01:03:44;;;;;;;16.20;7.68;;;6.80;99.90;;;;;;8451342;28;20052;-73
2024/02/12 01:07:46;;;;;;;15.68;7.35;;;6.80;99.90;;;;;;8450806;28;20164;-73
2024/02/12 01:11:48;;;;;;;13.15;7.18;;;6.90;99.90;;;;;;8450593;28;20052;-73
2024/02/12 01:15:50;;;;;;;20.38;8.02;;;6.90;99.90;;;;;;8446723;28;20041;-73
2024/02/12 01:19:53;;;;;;;18.27;8.38;;;6.90;99.90;;;;;;8453580;28;20044;-73
2024/02/12 01:23:55;;;;;;;14.00;7.55;;;6.90;99.90;;;;;;8457880;27;20087;-73
2024/02/12 01:28:00;;;;;;;16.50;8.30;;;6.90;99.90;;;;;;8458098;28;20040;-73
2024/02/12 01:32:01;;;;;;;16.10;8.27;;;6.90;99.90;;;;;;8456375;28;20051;-73
2024/02/12 01:36:05;;;;;;;18.90;8.00;;;6.90;99.90;;;;;;8453329;28;20123;-73
2024/02/12 01:40:08;;;;;;;16.00;8.02;;;6.90;99.90;;;;;;8458170;28;20054;-73
2024/02/12 01:44:12;;;;;;;18.00;8.35;;;7.00;99.90;;;;;;8456197;28;20105;-73
2024/02/12 01:48:14;;;;;;;19.42;8.38;;;7.00;99.90;;;;;;8457108;28;20570;-73
2024/02/12 01:52:17;;;;;;;19.90;9.48;;;7.00;99.90;;;;;;8455817;27;20055;-73
2024/02/12 01:56:21;;;;;;;16.33;8.27;;;7.00;99.90;;;;;;8460212;27;20491;-73
2024/02/12 02:00:23;;;;;;;17.10;8.50;;;7.10;99.90;;;;;;8459759;28;20047;-73
2024/02/12 02:04:26;;;;;;;20.83;9.07;;;7.10;99.90;;;;;;8454395;28;20047;-73
2024/02/12 02:08:36;;;;;;;18.55;9.13;;;7.10;99.90;;;;;;8451554;28;20047;-73
2024/02/12 02:12:39;;;;;;;18.00;8.63;;;7.10;99.90;;;;;;8458438;28;20554;-73
2024/02/12 02:16:41;;;;;;;16.38;8.27;;;7.10;99.90;;;;;;8449924;28;20040;-73
2024/02/12 02:20:43;;;;;;;15.43;7.65;;;7.10;99.90;;;;;;8485948;27;20044;-73
2024/02/12 02:24:45;;;;;;;16.42;8.00;;;7.10;99.90;;;;;;8452752;28;20084;-73
2024/02/12 02:28:46;;;;;;;19.42;8.77;;;7.10;99.90;;;;;;8459582;28;20101;-73
2024/02/12 02:32:49;;;;;;;19.02;8.82;;;7.10;99.90;;;;;;8459676;28;20047;-73
2024/02/12 02:36:52;;;;;;;21.88;9.10;;;7.10;99.90;;;;;;8456648;28;20060;-73
2024/02/12 02:40:54;;;;;;;19.35;9.52;;;7.10;99.90;;;;;;8453911;27;20047;-72
2024/02/12 02:44:56;;;;;;;17.95;8.60;;;7.10;99.90;;;;;;8454366;28;20044;-73
2024/02/12 02:48:58;;;;;;;22.20;9.25;;;7.10;99.90;;;;;;8453033;28;20359;-73
2024/02/12 02:53:01;;;;;;;22.23;9.32;;;7.10;99.90;;;;;;8454636;27;20048;-72
2024/02/12 02:57:03;;;;;;;19.45;8.63;;;7.10;99.90;;;;;;8480023;27;20506;-73
2024/02/12 03:01:05;;;;;;;20.65;9.00;;;7.10;99.90;;;;;;8460388;27;20052;-72
2024/02/12 03:05:08;;;;;;;20.92;10.13;;;7.00;99.90;;;;;;8450543;28;20054;-72
2024/02/12 03:09:13;;;;;;;21.80;9.63;;;7.00;99.90;;;;;;8456116;28;20046;-72
2024/02/12 03:13:15;;;;;;;18.90;9.40;;;7.00;99.90;;;;;;8443753;28;20039;-72
2024/02/12 03:17:17;;;;;;;19.48;9.23;;;7.00;99.90;;;;;;8447478;28;20039;-72
2024/02/12 03:21:21;;;;;;;19.50;7.80;;;7.00;99.90;;;;;;8458353;28;20052;-72
2024/02/12 03:25:23;;;;;;;19.27;8.65;;;6.90;99.90;;;;;;8453674;28;20093;-72
2024/02/12 03:29:25;;;;;;;17.55;8.40;;;6.80;99.90;;;;;;8457523;28;20048;-72
2024/02/12 03:33:27;;;;;;;17.40;7.78;;;6.70;99.90;;;;;;8454551;28;20398;-72
2024/02/12 03:37:29;;;;;;;15.32;8.25;;;6.60;99.90;;;;;;8461539;27;20546;-72
2024/02/12 03:41:31;;;;;;;16.23;8.57;;;6.50;99.90;;;;;;8453577;28;20104;-72
2024/02/12 03:45:34;;;;;;;16.60;7.50;;;6.40;99.90;;;;;;8451998;27;20051;-72
2024/02/12 04:02:40;;;;;;;19.55;8.82;;;6.20;99.90;;;;;;8456363;28;20043;-72
2024/02/12 04:06:42;;;;;;;19.45;9.73;;;6.20;99.90;;;;;;8452966;28;20100;-72
2024/02/12 04:10:44;;;;;;;18.27;9.23;;;6.20;99.90;;;;;;8455716;28;20048;-72
2024/02/12 04:14:46;;;;;;;22.25;10.25;;;6.20;99.90;;;;;;8470294;27;20044;-72
2024/02/12 04:18:48;;;;;;;21.00;9.85;;;6.20;99.90;;;;;;8447738;28;20081;-72
2024/02/12 04:22:52;;;;;;;19.75;9.25;;;6.10;99.90;;;;;;8456366;28;20054;-72
2024/02/12 04:26:55;;;;;;;22.80;9.55;;;6.10;99.90;;;;;;8452211;28;20052;-72
2024/02/12 04:30:57;;;;;;;21.42;8.93;;;6.10;99.90;;;;;;8454538;28;20040;-72
2024/02/12 04:34:59;;;;;;;17.85;8.43;;;6.10;99.90;;;;;;8454421;28;20142;-72
2024/02/12 04:39:01;;;;;;;24.00;8.95;;;6.10;99.90;;;;;;8454401;28;20108;-72
2024/02/12 04:43:04;;;;;;;19.33;8.30;;;6.10;99.90;;;;;;8457541;28;20112;-73
2024/02/12 04:47:06;;;;;;;20.08;8.63;;;6.10;99.90;;;;;;8447338;28;20054;-72
2024/02/12 04:51:08;;;;;;;19.58;8.02;;;6.10;99.90;;;;;;8451194;28;20059;-72
2024/02/12 04:55:10;;;;;;;22.50;9.73;;;6.10;99.90;;;;;;8449935;28;20140;-72
2024/02/12 04:59:15;;;;;;;20.55;9.00;;;6.10;99.90;;;;;;8450085;28;20051;-72
2024/02/12 05:03:17;;;;;;;24.40;10.30;;;6.10;99.90;;;;;;8450681;28;20043;-72
2024/02/12 05:07:18;;;;;;;24.33;9.57;;;6.10;99.90;;;;;;8446257;28;20372;-72
2024/02/12 05:11:24;;;;;;;21.02;8.88;;;6.10;99.90;;;;;;8455442;28;20048;-72
2024/02/12 05:15:26;;;;;;;21.90;8.93;;;6.20;99.90;;;;;;8445874;28;20067;-72
2024/02/12 05:23:49;;;;;;;24.35;10.15;;;6.20;99.90;;;;;;8446382;28;20391;-72
2024/02/12 05:27:50;;;;;;;24.05;9.63;;;6.30;99.90;;;;;;8441998;28;20066;-73
2024/02/12 05:31:53;;;;;;;21.33;9.00;;;6.30;99.90;;;;;;8446858;28;20463;-72
2024/02/12 05:35:55;;;;;;;18.85;8.63;;;6.40;99.90;;;;;;8434973;28;20050;-73
2024/02/12 05:39:59;;;;;;;19.60;7.60;;;6.40;99.90;;;;;;8424270;28;20507;-73
2024/02/12 05:44:01;;;;;;;20.92;9.38;;;6.40;99.90;;;;;;8464358;27;20388;-72
2024/02/12 05:48:03;;;;;;;25.70;10.30;;;6.40;99.90;;;;;;8437623;28;20184;-72
2024/02/12 05:52:06;;;;;;;17.80;8.25;;;6.50;99.90;;;;;;8448146;28;20364;-72
2024/02/12 05:56:08;;;;;;;25.52;10.95;;;6.50;99.90;;;;;;8450096;28;20097;-72
2024/02/12 06:00:10;;;;;;;26.17;11.13;;;6.50;99.90;;;;;;8451166;28;20036;-72
2024/02/12 06:04:12;;;;;;;21.42;10.82;;;6.60;99.90;;;;;;8453821;27;20079;-73
2024/02/12 06:08:15;;;;;;;27.67;12.68;;;6.60;99.90;;;;;;8455280;27;20551;-73
2024/02/12 06:12:17;;;;;;;22.67;10.85;;;6.70;99.90;;;;;;8443071;28;20051;-72
2024/02/12 06:16:19;;;;;;;29.80;12.77;;;6.70;99.90;;;;;;8439333;27;20093;-72
2024/02/12 06:20:21;;;;;;;26.60;11.93;;;6.70;99.90;;;;;;8443082;27;20050;-72
2024/02/12 06:24:23;;;;;;;23.65;10.77;;;6.80;99.90;;;;;;8439606;27;20078;-72
2024/02/12 06:28:25;;;;;;;22.38;11.40;;;6.80;99.90;;;;;;8425139;27;20364;-72
2024/02/12 06:32:29;;;;;;;21.08;9.80;;;6.80;99.90;;;;;;8432022;28;20119;-72
2024/02/12 06:36:31;;;;;;;28.08;11.85;;;6.80;99.90;;;;;;8421918;27;20482;-72
2024/02/12 06:40:34;;;;;;;23.83;11.00;;;6.80;99.90;;;;;;8431196;28;20093;-73
2024/02/12 06:44:35;;;;;;;20.38;9.80;;;6.80;99.90;;;;;;8422334;28;20051;-72
2024/02/12 06:48:40;;;;;;;22.33;10.57;;;6.80;99.90;;;;;;8444410;28;20056;-72
2024/02/12 06:52:42;;;;;;;24.42;11.45;;;6.80;99.90;;;;;;8435973;27;20044;-72
2024/02/12 06:56:44;;;;;;;17.48;9.27;;;6.70;99.90;;;;;;8433929;27;20467;-72
2024/02/12 07:00:46;;;;;;;22.70;10.13;;;6.70;99.90;;;;;;8439053;28;20047;-72
2024/02/12 07:04:47;;;;;;;21.58;9.73;;;6.60;99.90;;;;;;8431560;28;20490;-72
2024/02/12 07:08:49;;;;;;;19.65;9.02;;;6.60;99.90;;;;;;8457024;27;20055;-72
2024/02/12 07:12:51;;;;;;;22.15;9.55;;;6.50;99.90;;;;;;8428597;28;20054;-72
2024/02/12 07:16:53;;;;;;;21.15;9.50;;;6.50;99.90;;;;;;8429530;28;20070;-72
2024/02/12 07:20:55;;;;;;;21.23;9.55;;;6.40;99.90;;;;;;8439316;27;20052;-72
2024/02/12 07:24:57;;;;;;;19.33;9.27;;;6.40;99.90;;;;;;8440003;28;20052;-72
2024/02/12 07:28:59;;;;;;;21.13;10.57;;;6.40;99.90;;;;;;8435069;28;20160;-72
2024/02/12 07:33:03;;;;;;;23.42;10.40;;;6.30;99.90;;;;;;8430422;27;20550;-72
2024/02/12 07:37:06;;;;;;;22.05;9.48;;;6.30;99.90;;;;;;8441576;27;20130;-72
2024/02/12 07:41:08;;;;;;;18.95;8.88;;;6.30;99.90;;;;;;8433519;27;20093;-72
2024/02/12 07:45:13;;;;;;;20.77;9.35;;;6.30;99.90;;;;;;8422814;27;20048;-72
2024/02/12 07:49:15;;;;;;;25.60;8.85;;;6.30;99.90;;;;;;8427178;28;20105;-72
2024/02/12 07:53:24;;;;;;;18.33;7.53;;;6.30;99.90;;;;;;8426440;28;20105;-72
2024/02/12 07:57:27;;;;;;;16.38;7.45;;;6.20;99.90;;;;;;8424193;28;20075;-72
2024/02/12 08:01:29;;;;;;;17.48;8.43;;;6.20;99.90;;;;;;8423056;27;20048;-72
2024/02/12 08:05:35;;;;;;;20.63;9.15;;;6.20;99.90;;;;;;8423500;28;20044;-72
2024/02/12 08:09:37;;;;;;;14.77;6.55;;;6.30;99.90;;;;;;8427940;28;20040;-72
2024/02/12 08:13:38;;;;;;;18.60;8.70;;;6.30;99.90;;;;;;8429294;28;20093;-72
2024/02/12 08:17:40;;;;;;;22.98;9.35;;;6.40;99.90;;;;;;8439325;28;20039;-72
2024/02/12 08:21:44;;;;;;;19.80;9.75;;;6.50;99.90;;;;;;8431284;28;20063;-72
2024/02/12 08:25:47;;;;;;;18.10;8.60;;;6.60;99.90;;;;;;8426840;28;20043;-72
2024/02/12 08:29:51;;;;;;;19.27;8.45;;;6.80;99.90;;;;;;8425165;27;20136;-72
2024/02/12 08:33:54;;;;;;;22.48;10.65;;;6.90;99.90;;;;;;8422279;28;20101;-72
2024/02/12 08:37:56;;;;;;;20.58;10.25;;;6.90;99.90;;;;;;8429240;28;20075;-72
2024/02/12 08:41:58;;;;;;;25.02;10.55;;;7.00;99.90;;;;;;8432339;28;20168;-72
2024/02/12 08:46:00;;;;;;;22.25;9.93;;;7.00;99.90;;;;;;8422838;28;20052;-72
2024/02/12 08:50:03;;;;;;;19.42;9.30;;;7.00;99.90;;;;;;8424972;28;20048;-72
2024/02/12 08:54:05;;;;;;;23.75;10.93;;;7.10;99.90;;;;;;8423359;28;20069;-72
2024/02/12 08:58:10;;;;;;;23.00;11.48;;;7.30;99.90;;;;;;8439782;28;20553;-72
2024/02/12 09:02:12;;;;;;;21.80;11.27;;;7.50;99.90;;;;;;8429698;28;20557;-72
2024/02/12 09:06:15;;;;;;;27.60;11.68;;;7.70;99.90;;;;;;8429074;28;20082;-72
2024/02/12 09:10:18;;;;;;;25.75;11.55;;;7.90;99.90;;;;;;8426269;28;20055;-72
2024/02/12 09:14:23;;;;;;;24.13;10.80;;;8.00;99.90;;;;;;8426201;28;20054;-72
2024/02/12 09:18:26;;;;;;;24.23;11.68;;;8.00;99.90;;;;;;8435292;28;20498;-72
2024/02/12 09:22:29;;;;;;;19.45;9.85;;;8.10;99.90;;;;;;8425181;28;20048;-72
2024/02/12 09:26:31;;;;;;;21.33;9.65;;;8.00;99.90;;;;;;8419911;28;20048;-72
2024/02/12 09:30:34;;;;;;;20.85;9.23;;;8.10;99.90;;;;;;8439796;28;20093;-72
2024/02/12 09:34:37;;;;;;;24.65;9.85;;;8.10;99.90;;;;;;8431452;28;20088;-72
2024/02/12 09:38:38;;;;;;;19.88;9.70;;;8.10;99.90;;;;;;8425130;28;20044;-72
2024/02/12 09:42:41;;;;;;;22.25;9.35;;;8.10;99.90;;;;;;8431810;27;20055;-72
2024/02/12 09:46:47;;;;;;;18.30;9.48;;;8.20;99.90;;;;;;8435556;28;20101;-72
2024/02/12 09:50:50;;;;;;;17.67;8.55;;;8.40;99.90;;;;;;8441776;28;20054;-72
2024/02/12 09:54:53;;;;;;;18.23;8.13;;;8.50;99.90;;;;;;8438153;28;20071;-72
2024/02/12 09:58:55;;;;;;;16.20;7.88;;;8.50;99.90;;;;;;8444227;27;20040;-72
2024/02/12 10:02:57;;;;;;;19.23;8.52;;;8.50;99.90;;;;;;8434988;28;20047;-72
2024/02/12 10:06:58;;;;;;;14.35;7.38;;;8.50;99.90;;;;;;8431845;28;20458;-72
2024/02/12 10:11:02;;;;;;;14.25;7.05;;;8.60;99.90;;;;;;8434386;28;20494;-72
2024/02/12 10:15:05;;;;;;;12.27;6.47;;;8.70;99.90;;;;;;8436449;28;20044;-72
2024/02/12 10:19:07;;;;;;;13.23;6.75;;;8.90;99.90;;;;;;8441441;27;20063;-72
2024/02/12 10:23:11;;;;;;;14.68;7.40;;;9.10;99.90;;;;;;8441000;28;20126;-72
2024/02/12 10:27:14;;;;;;;11.73;7.00;;;9.40;99.90;;;;;;8437914;28;20051;-72
2024/02/12 10:31:18;;;;;;;12.35;6.22;;;9.70;99.90;;;;;;8442683;28;20055;-72
2024/02/12 10:35:22;;;;;;;15.27;6.65;;;10.10;99.90;;;;;;8439784;28;20052;-72
2024/02/12 10:39:27;;;;;;;12.35;6.03;;;10.50;99.90;;;;;;8440309;28;20097;-72
2024/02/12 10:43:33;;;;;;;11.57;6.05;;;11.10;99.90;;;;;;8440477;27;20047;-73
2024/02/12 10:47:37;;;;;;;12.00;6.30;;;11.20;99.90;;;;;;8431943;28;20434;-72
2024/02/12 10:51:40;;;;;;;12.57;7.05;;;11.00;99.90;;;;;;8436494;28;20043;-72
2024/02/12 10:55:43;;;;;;;14.93;8.15;;;10.70;99.90;;;;;;8435977;28;20072;-72
2024/02/12 10:59:45;;;;;;;14.82;8.10;;;10.50;99.90;;;;;;8426579;27;20476;-72
2024/02/12 11:03:48;;;;;;;14.05;8.80;;;10.40;99.90;;;;;;8434580;27;20048;-72
2024/02/12 11:08:14;;;;;;;14.30;9.48;;;10.50;99.90;;;;;;8437377;27;20138;-72
2024/02/12 11:12:22;;;;;;;12.68;8.52;;;11.20;99.90;;;;;;8431215;27;20046;-72
2024/02/12 11:16:30;;;;;;;15.15;8.20;;;12.00;99.90;;;;;;8434431;28;20043;-72
2024/02/12 11:20:32;;;;;;;12.00;6.13;;;12.50;99.90;;;;;;8431828;28;20055;-72
2024/02/12 11:24:39;;;;;;;9.63;6.20;;;12.80;99.90;;;;;;8425287;28;20079;-73
2024/02/12 11:28:52;;;;;;;8.35;5.18;;;13.00;99.90;;;;;;8425904;28;20062;-72
2024/02/12 11:32:57;;;;;;;11.32;6.10;;;13.20;99.90;;;;;;8422536;28;20055;-72
2024/02/12 11:37:01;;;;;;;10.32;5.68;;;12.90;99.90;;;;;;8428112;28;20051;-72
2024/02/12 11:41:05;;;;;;;11.23;5.70;;;12.50;99.90;;;;;;8430793;27;20067;-71
2024/02/12 11:45:07;;;;;;;9.50;5.13;;;12.10;99.90;;;;;;8423651;28;20050;-72
2024/02/12 11:49:09;;;;;;;11.18;5.40;;;11.90;99.90;;;;;;8423791;27;20052;-72
2024/02/12 11:53:11;;;;;;;10.73;5.43;;;11.60;99.90;;;;;;8421818;28;20101;-72
2024/02/12 11:57:23;;;;;;;7.10;4.32;;;11.30;99.90;;;;;;8423005;28;20043;-72
2024/02/12 12:01:27;;;;;;;9.55;4.70;;;11.00;99.90;;;;;;8435994;27;20048;-72
2024/02/12 12:05:30;;;;;;;6.70;4.13;;;10.80;99.90;;;;;;8432584;28;20048;-72
2024/02/12 12:09:32;;;;;;;10.30;4.50;;;10.70;99.90;;;;;;8441919;27;20065;-72
2024/02/12 12:13:34;;;;;;;9.32;4.15;;;10.60;99.90;;;;;;8435397;28;20052;-72
2024/02/12 12:17:37;;;;;;;7.43;3.58;;;10.50;99.90;;;;;;8431597;28;20040;-72
2024/02/12 12:21:40;;;;;;;6.72;3.28;;;10.40;99.90;;;;;;8433965;28;20042;-72
2024/02/12 12:25:44;;;;;;;6.70;3.35;;;10.30;99.90;;;;;;8438641;28;20055;-72
2024/02/12 12:29:47;;;;;;;8.07;3.63;;;10.30;99.90;;;;;;8431186;28;20379;-72
2024/02/12 12:33:49;;;;;;;6.95;3.40;;;10.40;99.90;;;;;;8430273;28;20066;-72
2024/02/12 12:37:52;;;;;;;7.50;3.80;;;10.80;99.90;;;;;;8431626;28;20048;-72
2024/02/12 12:41:55;;;;;;;8.18;3.65;;;11.00;99.90;;;;;;8435096;27;20040;-72
2024/02/12 12:45:57;;;;;;;6.68;3.40;;;11.00;99.90;;;;;;8433806;28;20051;-72
2024/02/12 12:49:59;;;;;;;10.80;3.55;;;10.80;99.90;;;;;;8422319;28;20048;-72
2024/02/12 12:54:01;;;;;;;11.18;3.42;;;10.50;99.90;;;;;;8428540;28;20067;-72
2024/02/12 12:58:03;;;;;;;7.65;2.90;;;10.40;99.90;;;;;;8428178;28;20051;-72
2024/02/12 13:02:06;;;;;;;5.78;2.53;;;10.20;99.90;;;;;;8427853;28;20036;-72
2024/02/12 13:06:10;;;;;;;4.57;2.08;;;10.10;99.90;;;;;;8430699;28;20051;-72
2024/02/12 13:10:11;;;;;;;3.35;1.60;;;9.80;99.90;;;;;;8428670;28;20055;-72
2024/02/12 13:14:13;;;;;;;3.85;1.30;;;9.70;99.90;;;;;;8429220;28;20071;-73
2024/02/12 13:18:16;;;;;;;3.65;1.40;;;9.70;99.90;;;;;;8434621;28;20050;-72
2024/02/12 13:22:20;;;;;;;2.88;1.23;;;9.80;99.90;;;;;;8430057;28;20048;-72
2024/02/12 13:26:24;;;;;;;2.92;1.23;;;10.10;99.90;;;;;;8432909;28;20055;-72
2024/02/12 13:30:33;;;;;;;3.72;1.13;;;10.20;99.90;;;;;;8421794;28;20052;-72
2024/02/12 13:34:36;;;;;;;5.13;1.25;;;10.20;99.90;;;;;;8436635;28;20102;-72
2024/02/12 13:38:39;;;;;;;3.25;1.20;;;10.00;99.90;;;;;;8427255;28;20056;-73
2024/02/12 13:42:43;;;;;;;3.03;1.10;;;9.50;99.90;;;;;;8434416;28;20059;-72
2024/02/12 13:46:46;;;;;;;3.85;1.08;;;8.90;99.90;;;;;;8436727;28;20105;-73
2024/02/12 13:50:48;;;;;;;5.22;1.10;;;8.70;99.90;;;;;;8432145;28;20135;-72
2024/02/12 13:54:52;;;;;;;4.63;1.40;;;8.70;99.90;;;;;;8432656;28;20043;-72
2024/02/12 13:58:54;;;;;;;4.72;1.60;;;8.80;99.90;;;;;;8431682;28;20385;-72
2024/02/12 14:02:55;;;;;;;3.53;1.60;;;8.90;99.90;;;;;;8433521;28;20051;-72
2024/02/12 14:06:57;;;;;;;5.25;1.38;;;8.90;99.90;;;;;;8435761;28;20047;-72
2024/02/12 14:10:59;;;;;;;5.25;1.55;;;8.80;99.90;;;;;;8434842;28;20920;-72
2024/02/12 14:15:02;;;;;;;4.43;1.30;;;8.60;99.90;;;;;;8433402;28;20054;-72
2024/02/12 14:19:08;;;;;;;6.93;1.45;;;8.60;99.90;;;;;;8429537;28;20047;-72
2024/02/12 14:23:10;;;;;;;5.95;1.75;;;8.50;99.90;;;;;;8434081;28;20521;-72
2024/02/12 14:27:12;;;;;;;3.75;1.52;;;8.40;99.90;;;;;;8434952;27;20093;-71
2024/02/12 14:31:16;;;;;;;4.20;1.50;;;8.40;99.90;;;;;;8441639;28;20043;-72
2024/02/12 14:35:19;;;;;;;4.35;1.30;;;8.50;99.90;;;;;;8444941;27;20048;-72
2024/02/12 14:39:21;;;;;;;4.25;1.13;;;8.50;99.90;;;;;;8438381;28;20060;-72
2024/02/12 14:43:23;;;;;;;2.65;1.10;;;8.50;99.90;;;;;;8436876;28;20051;-72
2024/02/12 14:47:25;;;;;;;5.30;1.27;;;8.50;99.90;;;;;;8440288;27;20072;-72
2024/02/12 14:51:27;;;;;;;4.82;1.30;;;8.50;99.90;;;;;;8432889;27;20457;-72
2024/02/12 14:55:28;;;;;;;5.32;1.35;;;8.60;99.90;;;;;;8437090;28;20048;-72
2024/02/12 14:59:30;;;;;;;4.40;1.30;;;8.60;99.90;;;;;;8439630;27;20047;-72
2024/02/12 15:03:32;;;;;;;4.70;1.00;;;8.70;99.90;;;;;;8426083;27;20639;-72
2024/02/12 15:07:34;;;;;;;4.93;1.35;;;9.60;99.90;;;;;;8434585;28;20047;-72
2024/02/12 15:11:36;;;;;;;4.05;1.02;;;10.70;99.90;;;;;;8438303;28;20110;-72
2024/02/12 15:15:39;;;;;;;8.65;1.40;;;11.60;99.90;;;;;;8429358;28;20040;-72
2024/02/12 15:19:48;;;;;;;4.20;1.05;;;12.00;99.90;;;;;;8425379;28;20052;-72
2024/02/12 15:23:51;;;;;;;6.30;1.30;;;12.00;99.90;;;;;;8426526;27;20108;-72
2024/02/12 15:27:54;;;;;;;7.07;1.25;;;11.70;99.90;;;;;;8425748;27;20727;-72
2024/02/12 15:31:56;;;;;;;4.82;1.33;;;11.60;99.90;;;;;;8424371;27;20462;-72
2024/02/12 15:36:00;;;;;;;3.88;1.20;;;11.30;99.90;;;;;;8427971;27;20044;-72
2024/02/12 15:40:05;;;;;;;7.95;1.20;;;10.90;99.90;;;;;;8434520;27;20122;-72
2024/02/12 15:44:10;;;;;;;5.43;1.30;;;10.50;99.90;;;;;;8426489;27;20055;-72
2024/02/12 15:48:14;;;;;;;6.47;1.67;;;10.40;99.90;;;;;;8430186;27;20071;-72
2024/02/12 15:52:22;;;;;;;3.90;1.38;;;10.60;99.90;;;;;;8422955;28;20059;-73
2024/02/12 15:56:25;;;;;;;5.40;1.48;;;11.00;99.90;;;;;;8418079;27;20035;-72
2024/02/12 16:00:29;;;;;;;4.85;1.23;;;11.30;99.90;;;;;;8420134;27;20060;-72
2024/02/12 16:04:36;;;;;;;2.70;0.93;;;11.40;99.90;;;;;;8437398;28;20050;-72
2024/02/12 16:08:40;;;;;;;6.47;1.23;;;11.60;99.90;;;;;;8420929;28;20109;-72
2024/02/12 16:12:43;;;;;;;4.82;1.10;;;11.80;99.90;;;;;;8429682;27;20135;-72
2024/02/12 16:16:44;;;;;;;3.92;0.98;;;11.80;99.90;;;;;;8424598;27;20047;-72
2024/02/12 16:20:46;;;;;;;3.72;0.93;;;11.80;99.90;;;;;;8429059;27;20052;-71
2024/02/12 16:24:48;;;;;;;6.15;1.15;;;11.70;99.90;;;;;;8423630;27;20507;-72
2024/02/12 16:28:50;;;;;;;6.00;1.25;;;11.40;99.90;;;;;;8420815;27;20048;-72
2024/02/12 16:32:52;;;;;;;3.38;0.90;;;11.00;99.90;;;;;;8421429;27;20511;-72
2024/02/12 16:36:54;;;;;;;3.03;1.00;;;10.50;99.90;;;;;;8422876;27;20063;-72
2024/02/12 16:40:56;;;;;;;4.38;1.10;;;9.90;99.90;;;;;;8421814;27;20032;-72
2024/02/12 16:44:58;;;;;;;2.40;0.90;;;9.50;99.90;;;;;;8433339;27;20486;-72
2024/02/12 16:48:59;;;;;;;3.75;1.15;;;9.20;99.90;;;;;;8419570;27;20399;-72
2024/02/12 16:53:02;;;;;;;4.05;1.10;;;8.90;99.90;;;;;;8426081;28;20870;-72
2024/02/12 16:57:05;;;;;;;3.90;1.00;;;8.70;99.90;;;;;;8418704;28;20119;-72
2024/02/12 17:01:09;;;;;;;4.15;0.90;;;8.60;99.90;;;;;;8424547;28;20329;-72
2024/02/12 17:05:12;;;;;;;5.95;1.20;;;8.40;99.90;;;;;;8427868;28;20048;-72
2024/02/12 17:09:14;;;;;;;4.80;1.20;;;8.30;99.90;;;;;;8418842;28;20072;-72
2024/02/12 17:13:16;;;;;;;6.00;1.23;;;8.20;99.90;;;;;;8418376;28;20136;-72
2024/02/12 17:17:19;;;;;;;6.70;1.20;;;8.10;99.90;;;;;;8422796;28;20044;-72
2024/02/12 17:21:21;;;;;;;5.50;1.30;;;7.90;99.90;;;;;;8418430;28;20076;-72
2024/02/12 17:25:23;;;;;;;7.88;1.45;;;7.80;99.90;;;;;;8431455;28;20463;-72
2024/02/12 17:29:27;;;;;;;2.25;1.00;;;7.70;99.90;;;;;;8426740;28;20143;-72
2024/02/12 17:33:30;;;;;;;3.92;1.15;;;7.60;99.90;;;;;;8422476;28;20059;-72
2024/02/12 17:37:32;;;;;;;7.10;1.50;;;7.60;99.90;;;;;;8433207;28;20070;-72
2024/02/12 17:41:34;;;;;;;4.70;1.40;;;7.60;99.90;;;;;;8424271;28;20044;-72
2024/02/12 17:45:36;;;;;;;6.53;1.38;;;7.50;99.90;;;;;;8433669;28;20096;-72
2024/02/12 17:49:47;;;;;;;4.18;1.38;;;7.40;99.90;;;;;;8429405;28;20048;-72
2024/02/12 17:53:50;;;;;;;4.65;1.50;;;7.40;99.90;;;;;;8430573;28;20093;-73
2024/02/12 17:57:52;;;;;;;3.03;1.55;;;7.30;99.90;;;;;;8437689;28;20044;-72
2024/02/12 18:01:54;;;;;;;6.53;2.33;;;7.30;99.90;;;;;;8428152;28;20093;-72
2024/02/12 18:05:56;;;;;;;4.53;1.63;;;7.20;99.90;;;;;;8429841;28;20048;-72
2024/02/12 18:09:58;;;;;;;4.32;1.42;;;7.20;99.90;;;;;;8433319;27;20051;-73
2024/02/12 18:14:00;;;;;;;6.68;1.73;;;7.10;99.90;;;;;;8433470;28;20051;-73
2024/02/12 18:18:04;;;;;;;3.53;1.60;;;7.10;99.90;;;;;;8447182;27;20109;-72
2024/02/12 18:22:07;;;;;;;7.88;1.48;;;7.00;99.90;;;;;;8439370;27;20051;-72
2024/02/12 18:26:15;;;;;;;5.68;1.70;;;6.90;99.90;;;;;;8444366;28;20109;-72
2024/02/12 18:30:17;;;;;;;5.53;1.90;;;6.90;99.90;;;;;;8437026;28;20055;-73
2024/02/12 18:34:19;;;;;;;6.15;1.77;;;6.80;99.90;;;;;;8427201;28;20043;-73
2024/02/12 18:38:21;;;;;;;4.88;1.70;;;6.80;99.90;;;;;;8427274;28;20048;-73
2024/02/12 18:42:24;;;;;;;5.68;1.90;;;6.80;99.90;;;;;;8426336;28;20131;-73
2024/02/12 18:46:27;;;;;;;4.85;1.98;;;6.70;99.90;;;;;;8426068;28;20051;-73
2024/02/12 18:50:29;;;;;;;6.45;2.00;;;6.70;99.90;;;;;;8424200;28;20071;-73
2024/02/12 18:54:31;;;;;;;6.22;2.20;;;6.60;99.90;;;;;;8435366;28;20056;-73
2024/02/12 18:58:35;;;;;;;4.70;2.30;;;6.60;99.90;;;;;;8443925;28;20052;-73
2024/02/12 19:02:36;;;;;;;4.95;1.95;;;6.50;99.90;;;;;;8434918;28;20086;-73
2024/02/12 19:06:38;;;;;;;6.00;2.22;;;6.50;99.90;;;;;;8458432;27;20047;-73
2024/02/12 19:10:41;;;;;;;5.15;2.03;;;6.50;99.90;;;;;;8430324;27;20480;-73
2024/02/12 19:14:43;;;;;;;6.68;2.17;;;6.40;99.90;;;;;;8456283;27;20040;-73
2024/02/12 19:18:45;;;;;;;6.13;2.10;;;6.40;99.90;;;;;;8427195;27;20067;-73
2024/02/12 19:22:47;;;;;;;4.82;1.95;;;6.40;99.90;;;;;;8432159;28;20117;-73
2024/02/12 19:26:51;;;;;;;6.95;2.30;;;6.40;99.90;;;;;;8428397;28;20120;-73
2024/02/12 19:30:54;;;;;;;6.53;2.40;;;6.30;99.90;;;;;;8424565;28;20404;-73
2024/02/12 19:34:58;;;;;;;5.47;2.05;;;6.30;99.90;;;;;;8424554;28;20447;-73
2024/02/12 19:39:00;;;;;;;4.72;2.33;;;6.30;99.90;;;;;;8430903;28;20464;-73
2024/02/12 19:43:04;;;;;;;6.15;2.10;;;6.20;99.90;;;;;;8426403;28;20058;-73
2024/02/12 19:47:08;;;;;;;6.43;2.28;;;6.20;99.90;;;;;;8429076;28;20048;-73
2024/02/12 19:51:10;;;;;;;5.00;1.95;;;6.10;99.90;;;;;;8430166;28;20242;-73
2024/02/12 19:55:12;;;;;;;5.15;2.42;;;6.10;99.90;;;;;;8435833;28;20051;-73
2024/02/12 19:59:16;;;;;;;4.22;1.80;;;6.00;99.90;;;;;;8424528;27;20036;-73
2024/02/12 20:03:18;;;;;;;4.15;1.90;;;5.90;99.90;;;;;;8423852;28;20047;-72
2024/02/12 20:07:20;;;;;;;6.57;2.03;;;5.80;99.90;;;;;;8428744;28;20082;-73
2024/02/12 20:11:22;;;;;;;6.90;2.20;;;5.70;99.90;;;;;;8427760;28;20043;-73
2024/02/12 20:15:24;;;;;;;5.80;1.90;;;5.50;99.90;;;;;;8425487;28;20479;-73
2024/02/12 20:19:27;;;;;;;4.88;1.90;;;5.30;99.90;;;;;;8425050;28;20048;-73
2024/02/12 20:23:28;;;;;;;6.72;1.98;;;5.20;99.90;;;;;;8425171;28;20075;-73
2024/02/12 20:27:34;;;;;;;4.82;1.90;;;5.10;99.90;;;;;;8425924;28;20044;-73
2024/02/12 20:31:38;;;;;;;6.63;1.80;;;5.10;99.90;;;;;;8427460;28;20105;-73
2024/02/12 20:35:40;;;;;;;6.38;2.03;;;5.00;99.90;;;;;;8426818;28;20071;-73
2024/02/12 20:39:44;;;;;;;3.95;1.80;;;5.00;99.90;;;;;;8430784;28;20401;-73
2024/02/12 20:43:46;;;;;;;5.25;1.73;;;4.90;99.90;;;;;;8423395;28;20627;-73
2024/02/12 20:47:49;;;;;;;6.68;2.25;;;4.90;99.90;;;;;;8423550;28;20044;-73
2024/02/12 20:51:51;;;;;;;5.57;1.85;;;4.80;99.90;;;;;;8435402;27;20079;-73
2024/02/12 20:55:53;;;;;;;4.93;2.05;;;4.80;99.90;;;;;;8435664;28;20048;-73
2024/02/12 20:59:55;;;;;;;5.18;2.03;;;4.80;99.90;;;;;;8432574;28;20072;-73
2024/02/12 21:03:57;;;;;;;4.90;1.88;;;4.60;99.90;;;;;;8426678;28;20086;-73
2024/02/12 21:07:59;;;;;;;5.95;2.40;;;4.60;99.90;;;;;;8430831;28;20047;-73
2024/02/12 21:12:02;;;;;;;5.82;2.55;;;4.50;99.90;;;;;;8420481;28;20392;-73
2024/02/12 21:16:04;;;;;;;5.20;2.40;;;4.50;99.90;;;;;;8423735;28;20071;-73
2024/02/12 21:20:08;;;;;;;5.25;2.20;;;4.40;99.90;;;;;;8426298;28;20048;-73
2024/02/12 21:24:12;;;;;;;4.32;2.13;;;4.40;99.90;;;;;;8424800;28;20044;-73